Terminal Aerodrome Forecast
Issued by NWS

Home | Current Version | Previous Version | Text Only | Print | Product List | Glossary On
Versions: 1 2 3 4 5 6 7 8 9 10 11 12 13 14
000
FTUS42 KMLB 061725
TAFISM
TAF
KISM 061725Z 0618/0718 03008KT P6SM SCT010 OVC015
     FM070000 01013KT P6SM OVC008
     FM070600 36013KT P6SM OVC006
     FM071400 03011KT P6SM FEW008 OVC020=

USA.gov is the U.S. government's official web portal to all federal, state and local government web resources and services.